Terminal Aerodrome Forecast
Issued by NWS

Home | Current Version | Previous Version | Text Only | Print | Product List | Glossary On
Versions: 1 2 3 4 5 6 7 8 9 10 11 12 13 14
000
FTUS44 KCRP 051132
TAFLRD
TAF
KLRD 051132Z 0512/0612 13012KT P6SM OVC019
     FM051400 13013KT P6SM BKN025 OVC040
     FM051900 14015KT P6SM BKN035
     FM060400 13015KT P6SM OVC025
     FM060700 13011KT P6SM OVC015=

USA.gov is the U.S. government's official web portal to all federal, state and local government web resources and services.